Time;durP1;ratioP1;P1;durP2;ratioP2;P2;SDS_P1;SDS_P2;PMS_P1;PMS_P2;Temp;Humidity;BMP_temperature;BMP_pressure;BME280_temperature;BME280_humidity;BME280_pressure;Samples;Min_cycle;Max_cycle;Signal;HPM_P1;HPM_P2
2023/10/17 00:00:39;;;;;;;3.33;2.97;;;;;;;;;;5059505;28;20016;-70
2023/10/17 00:03:04;;;;;;;6.65;2.75;;;;;;;;;;5075502;28;20039;-70
2023/10/17 00:05:29;;;;;;;2.97;2.67;;;;;;;;;;5075928;28;20013;-71
2023/10/17 00:07:58;;;;;;;4.05;2.92;;;;;;;;;;5075902;28;20020;-70
2023/10/17 00:10:24;;;;;;;4.50;3.60;;;;;;;;;;5058718;28;20028;-71
2023/10/17 00:12:52;;;;;;;4.97;3.80;;;;;;;;;;5075740;28;20416;-71
2023/10/17 00:15:27;;;;;;;6.28;3.33;;;;;;;;;;5058522;28;20030;-70
2023/10/17 00:17:56;;;;;;;4.78;3.30;;;;;;;;;;5059194;28;20402;-71
2023/10/17 00:20:25;;;;;;;10.05;3.72;;;;;;;;;;5075649;28;20483;-71
2023/10/17 00:22:51;;;;;;;8.20;4.00;;;;;;;;;;5075565;28;20021;-70
2023/10/17 00:25:17;;;;;;;7.70;3.13;;;;;;;;;;5075853;28;20363;-70
2023/10/17 00:27:43;;;;;;;6.32;3.95;;;;;;;;;;5057450;28;20035;-71
2023/10/17 00:30:16;;;;;;;6.53;4.38;;;;;;;;;;5075475;28;20024;-70
2023/10/17 00:32:42;;;;;;;9.63;3.45;;;;;;;;;;5075931;28;20364;-71
2023/10/17 00:35:13;;;;;;;13.52;4.18;;;;;;;;;;5075278;28;20020;-70
2023/10/17 00:37:39;;;;;;;4.43;3.25;;;;;;;;;;5075413;28;20561;-70
2023/10/17 00:40:13;;;;;;;5.80;4.13;;;;;;;;;;5075271;28;20060;-71
2023/10/17 00:42:41;;;;;;;8.95;4.18;;;;;;;;;;5058789;28;20115;-71
2023/10/17 00:45:08;;;;;;;6.85;4.03;;;;;;;;;;5075175;28;20013;-70
2023/10/17 00:47:33;;;;;;;8.25;3.72;;;;;;;;;;5075166;28;20390;-71
2023/10/17 00:50:05;;;;;;;4.60;3.83;;;;;;;;;;5075379;28;20020;-71
2023/10/17 00:52:32;;;;;;;;;;;;;;;;;;5058842;28;20044;-71
2023/10/17 00:54:59;;;;;;;5.18;3.45;;;;;;;;;;5073815;28;19908;-70
2023/10/17 00:57:26;;;;;;;6.35;3.83;;;;;;;;;;5074963;28;20024;-70
2023/10/17 00:59:53;;;;;;;6.63;3.95;;;;;;;;;;5057450;28;20024;-70
2023/10/17 01:02:29;;;;;;;5.85;4.10;;;;;;;;;;5074797;28;20031;-70
2023/10/17 01:04:58;;;;;;;6.28;3.60;;;;;;;;;;5058335;28;20021;-70
2023/10/17 01:07:26;;;;;;;5.20;3.70;;;;;;;;;;5057372;28;20020;-71
2023/10/17 01:09:55;;;;;;;6.88;4.18;;;;;;;;;;5057549;28;20036;-70
2023/10/17 01:12:28;;;;;;;7.20;3.88;;;;;;;;;;5074778;28;20025;-70
2023/10/17 01:14:54;;;;;;;5.88;3.47;;;;;;;;;;5074888;28;20024;-70
2023/10/17 01:17:24;;;;;;;8.45;3.83;;;;;;;;;;5057234;28;20025;-70
2023/10/17 01:19:53;;;;;;;6.15;3.28;;;;;;;;;;5074848;28;20029;-70
2023/10/17 01:22:19;;;;;;;6.10;3.78;;;;;;;;;;5074884;28;20089;-70
2023/10/17 01:24:44;;;;;;;5.50;4.05;;;;;;;;;;5074490;28;20096;-70
2023/10/17 01:27:12;;;;;;;4.45;2.83;;;;;;;;;;5056990;28;20470;-70
2023/10/17 01:29:38;;;;;;;4.43;3.50;;;;;;;;;;5057205;28;20027;-71
2023/10/17 01:32:04;;;;;;;5.97;3.67;;;;;;;;;;5074263;28;20021;-71
2023/10/17 01:34:31;;;;;;;6.85;3.38;;;;;;;;;;5074077;28;20115;-71
2023/10/17 01:36:57;;;;;;;6.13;3.50;;;;;;;;;;5056358;28;20056;-71
2023/10/17 01:39:25;;;;;;;6.40;3.10;;;;;;;;;;5073688;28;20106;-71
2023/10/17 01:41:51;;;;;;;4.40;2.67;;;;;;;;;;5074249;28;20414;-70
2023/10/17 01:44:17;;;;;;;4.20;3.60;;;;;;;;;;5056098;28;20031;-70
2023/10/17 01:46:43;;;;;;;4.18;2.45;;;;;;;;;;5073957;28;20390;-70
2023/10/17 01:49:12;;;;;;;5.70;3.45;;;;;;;;;;5073918;28;20456;-70
2023/10/17 01:51:41;;;;;;;4.57;3.08;;;;;;;;;;5073931;28;20032;-71
2023/10/17 01:54:14;;;;;;;3.80;2.60;;;;;;;;;;5056044;28;20028;-70
2023/10/17 01:56:40;;;;;;;4.97;3.28;;;;;;;;;;5057177;28;20094;-71
2023/10/17 01:59:13;;;;;;;4.15;2.83;;;;;;;;;;5073734;28;20024;-70
2023/10/17 02:01:40;;;;;;;4.45;3.35;;;;;;;;;;5056943;28;20109;-71
2023/10/17 02:04:12;;;;;;;4.32;2.67;;;;;;;;;;5056046;28;20020;-71
2023/10/17 02:06:38;;;;;;;4.28;3.53;;;;;;;;;;5057110;28;20207;-71
2023/10/17 02:09:20;;;;;;;5.85;2.95;;;;;;;;;;5055985;28;20052;-71
2023/10/17 02:11:50;;;;;;;5.75;2.83;;;;;;;;;;5073564;28;20478;-71
2023/10/17 02:14:15;;;;;;;12.02;2.80;;;;;;;;;;5073361;28;20024;-71
2023/10/17 02:16:41;;;;;;;6.75;2.60;;;;;;;;;;5073423;28;20074;-70
2023/10/17 02:19:07;;;;;;;8.18;2.80;;;;;;;;;;5073380;28;20032;-71
2023/10/17 02:21:33;;;;;;;5.60;2.83;;;;;;;;;;5056053;28;20020;-71
2023/10/17 02:24:01;;;;;;;7.95;3.08;;;;;;;;;;5073252;28;20111;-70
2023/10/17 02:26:28;;;;;;;3.58;2.53;;;;;;;;;;5073216;28;20372;-71
2023/10/17 02:28:54;;;;;;;4.28;2.75;;;;;;;;;;5055656;28;20020;-71
2023/10/17 02:31:27;;;;;;;3.58;2.85;;;;;;;;;;5073578;28;20028;-71
2023/10/17 02:33:53;;;;;;;3.85;2.60;;;;;;;;;;5073159;28;20048;-71
2023/10/17 02:36:18;;;;;;;4.82;2.35;;;;;;;;;;5055244;28;20451;-71
2023/10/17 02:38:43;;;;;;;4.32;2.50;;;;;;;;;;5073280;28;20119;-70
2023/10/17 02:41:19;;;;;;;3.92;2.55;;;;;;;;;;5055589;28;20090;-71
2023/10/17 02:43:48;;;;;;;3.20;2.47;;;;;;;;;;5056501;28;20020;-70
2023/10/17 02:46:14;;;;;;;7.85;2.65;;;;;;;;;;5055124;28;20024;-70
2023/10/17 02:48:42;;;;;;;5.00;2.83;;;;;;;;;;5055178;28;20024;-70
2023/10/17 02:51:18;;;;;;;6.43;2.72;;;;;;;;;;5073276;28;20081;-70
2023/10/17 02:53:43;;;;;;;4.90;3.22;;;;;;;;;;5056498;28;20028;-70
2023/10/17 02:56:18;;;;;;;4.88;2.95;;;;;;;;;;5054888;28;20158;-70
2023/10/17 02:58:59;;;;;;;5.03;2.65;;;;;;;;;;5056407;28;20062;-71
2023/10/17 03:01:24;;;;;;;5.53;2.50;;;;;;;;;;5073256;28;20024;-71
2023/10/17 03:03:50;;;;;;;4.20;2.42;;;;;;;;;;5072892;28;20104;-71
2023/10/17 03:06:16;;;;;;;8.27;2.95;;;;;;;;;;5055026;28;20021;-71
2023/10/17 03:08:42;;;;;;;3.53;2.30;;;;;;;;;;5055051;28;20111;-71
2023/10/17 03:11:08;;;;;;;5.47;1.92;;;;;;;;;;5054878;28;20063;-71
2023/10/17 03:13:40;;;;;;;4.60;2.45;;;;;;;;;;5054966;28;20048;-71
2023/10/17 03:18:51;;;;;;;2.97;2.20;;;;;;;;;;5073152;28;20075;-70
2023/10/17 03:21:19;;;;;;;3.35;1.90;;;;;;;;;;5073024;28;20075;-70
2023/10/17 03:23:49;;;;;;;5.28;2.30;;;;;;;;;;5072650;28;20052;-70
2023/10/17 03:26:17;;;;;;;3.40;2.20;;;;;;;;;;5055450;28;20016;-70
2023/10/17 03:28:42;;;;;;;3.00;2.42;;;;;;;;;;5054822;28;20051;-70
2023/10/17 03:31:10;;;;;;;3.97;2.83;;;;;;;;;;5072949;28;20470;-71
2023/10/17 03:33:40;;;;;;;3.05;2.45;;;;;;;;;;5072669;28;20057;-70
2023/10/17 03:36:05;;;;;;;3.75;1.63;;;;;;;;;;5072504;28;20398;-70
2023/10/17 03:38:33;;;;;;;2.42;2.22;;;;;;;;;;5072597;28;20032;-71
2023/10/17 03:41:04;;;;;;;3.63;2.15;;;;;;;;;;5072765;28;20487;-70
2023/10/17 03:43:37;;;;;;;4.38;2.28;;;;;;;;;;5054818;28;20047;-71
2023/10/17 03:46:04;;;;;;;7.35;2.67;;;;;;;;;;5056110;28;20143;-70
2023/10/17 03:48:32;;;;;;;2.72;1.90;;;;;;;;;;5072487;28;20489;-70
2023/10/17 03:53:36;;;;;;;3.70;2.28;;;;;;;;;;5072533;28;20035;-70
2023/10/17 03:56:02;;;;;;;3.42;3.10;;;;;;;;;;5072586;28;20466;-71
2023/10/17 04:01:09;;;;;;;3.97;2.60;;;;;;;;;;5055093;28;20109;-70
2023/10/17 04:03:34;;;;;;;8.35;2.25;;;;;;;;;;5075949;28;20024;-70
2023/10/17 04:08:34;;;;;;;3.42;2.65;;;;;;;;;;5059411;28;20043;-70
2023/10/17 04:11:25;;;;;;;2.30;1.48;;;;;;;;;;5058669;28;20394;-70
2023/10/17 04:13:55;;;;;;;5.43;2.30;;;;;;;;;;5061493;28;20162;-70
2023/10/17 04:16:25;;;;;;;4.82;2.60;;;;;;;;;;5058038;28;20059;-70
2023/10/17 04:19:17;;;;;;;2.67;1.95;;;;;;;;;;5058172;28;20116;-70
2023/10/17 04:21:45;;;;;;;7.70;2.75;;;;;;;;;;5060579;28;20070;-70
2023/10/17 04:24:10;;;;;;;3.67;2.25;;;;;;;;;;5059237;28;20024;-70
2023/10/17 04:26:35;;;;;;;3.97;2.47;;;;;;;;;;5075657;28;20479;-71
2023/10/17 04:29:12;;;;;;;2.33;2.13;;;;;;;;;;5057697;28;20031;-70
2023/10/17 04:31:44;;;;;;;4.20;2.50;;;;;;;;;;5059138;28;20028;-70
2023/10/17 04:34:14;;;;;;;5.78;1.58;;;;;;;;;;5075383;28;20472;-70
2023/10/17 04:36:40;;;;;;;2.40;1.80;;;;;;;;;;5058575;28;20367;-70
2023/10/17 04:39:11;;;;;;;6.65;2.38;;;;;;;;;;5057729;28;20025;-70
2023/10/17 04:44:36;;;;;;;7.22;2.50;;;;;;;;;;5041366;28;20035;-70
2023/10/17 04:49:31;;;;;;;2.85;2.28;;;;;;;;;;5075719;28;20027;-70
2023/10/17 04:52:08;;;;;;;3.67;2.28;;;;;;;;;;5058190;28;20052;-70
2023/10/17 04:57:06;;;;;;;4.28;2.42;;;;;;;;;;5057602;28;20036;-70
2023/10/17 05:07:52;;;;;;;4.05;2.13;;;;;;;;;;5058025;28;20063;-70
2023/10/17 06:18:31;;;;;;;4.75;2.80;;;;;;;;;;5058421;28;20040;-70
2023/10/17 06:34:16;;;;;;;7.75;2.30;;;;;;;;;;5056014;28;20033;-70
2023/10/17 06:36:42;;;;;;;12.55;2.47;;;;;;;;;;5055253;28;20405;-70
2023/10/17 06:39:16;;;;;;;3.22;1.98;;;;;;;;;;5055370;28;20025;-70
2023/10/17 06:41:44;;;;;;;3.13;2.10;;;;;;;;;;5073418;28;20032;-70
2023/10/17 06:44:10;;;;;;;7.28;2.13;;;;;;;;;;5072951;28;20035;-70
2023/10/17 06:46:40;;;;;;;5.32;2.33;;;;;;;;;;5072991;28;20565;-70
2023/10/17 06:49:09;;;;;;;8.23;2.42;;;;;;;;;;5073071;28;20025;-70
2023/10/17 06:51:49;;;;;;;2.40;1.83;;;;;;;;;;5055073;28;20020;-71
2023/10/17 06:54:15;;;;;;;3.35;2.83;;;;;;;;;;5057025;28;20029;-70
2023/10/17 06:56:41;;;;;;;3.17;1.85;;;;;;;;;;5055006;28;20482;-70
2023/10/17 06:59:14;;;;;;;6.63;2.08;;;;;;;;;;5055290;28;20024;-70
2023/10/17 07:01:40;;;;;;;3.10;2.63;;;;;;;;;;5056336;28;20024;-70
2023/10/17 07:04:11;;;;;;;7.05;1.98;;;;;;;;;;5055263;28;20024;-70
2023/10/17 07:06:38;;;;;;;3.17;2.05;;;;;;;;;;5072882;28;20048;-70
2023/10/17 07:09:06;;;;;;;2.75;1.92;;;;;;;;;;5072831;28;20024;-70
2023/10/17 07:11:35;;;;;;;2.90;2.50;;;;;;;;;;5055190;28;20052;-70
2023/10/17 07:16:34;;;;;;;3.90;2.63;;;;;;;;;;5055259;28;20095;-70
2023/10/17 07:24:29;;;;;;;6.15;2.15;;;;;;;;;;5057293;28;20028;-70
2023/10/17 07:26:55;;;;;;;6.75;2.60;;;;;;;;;;5054726;28;20025;-70
2023/10/17 07:29:22;;;;;;;8.35;2.55;;;;;;;;;;5054813;28;20024;-70
2023/10/17 07:31:54;;;;;;;3.33;2.72;;;;;;;;;;5072623;28;20478;-70
2023/10/17 07:34:23;;;;;;;4.45;2.17;;;;;;;;;;5055165;28;20474;-71
2023/10/17 07:37:48;;;;;;;6.55;2.08;;;;;;;;;;5056465;28;20033;-70
2023/10/17 07:39:38;;;;;;;5.55;2.45;;;;;;;;;;5057660;28;20043;-70
2023/10/17 07:42:04;;;;;;;7.22;2.28;;;;;;;;;;5058503;28;20024;-70
2023/10/17 07:44:34;;;;;;;5.53;2.15;;;;;;;;;;5058398;28;20077;-70
2023/10/17 07:47:19;;;;;;;2.40;2.20;;;;;;;;;;5076305;28;20027;-70
2023/10/17 07:49:47;;;;;;;3.03;2.20;;;;;;;;;;5061201;28;20055;-70
2023/10/17 07:52:15;;;;;;;3.60;1.92;;;;;;;;;;5058609;28;20031;-70
2023/10/17 07:54:55;;;;;;;3.45;1.75;;;;;;;;;;5058576;28;20055;-70
2023/10/17 07:57:24;;;;;;;3.55;2.55;;;;;;;;;;5060297;28;20024;-70
2023/10/17 07:59:52;;;;;;;5.10;2.08;;;;;;;;;;5058208;28;20141;-70
2023/10/17 08:02:22;;;;;;;6.53;1.80;;;;;;;;;;5058766;28;20550;-70
2023/10/17 08:04:50;;;;;;;4.38;2.10;;;;;;;;;;5075915;28;20016;-70
2023/10/17 08:07:20;;;;;;;3.65;2.00;;;;;;;;;;5076132;28;20026;-71
2023/10/17 08:09:58;;;;;;;4.78;2.15;;;;;;;;;;5058553;28;20021;-70
2023/10/17 08:12:24;;;;;;;5.28;2.20;;;;;;;;;;5075813;28;20052;-70
2023/10/17 08:14:59;;;;;;;3.38;1.83;;;;;;;;;;5058121;28;20063;-70
2023/10/17 08:17:27;;;;;;;5.05;2.15;;;;;;;;;;5059766;28;20025;-70
2023/10/17 08:22:27;;;;;;;6.72;2.63;;;;;;;;;;5076008;28;20025;-70
2023/10/17 08:24:53;;;;;;;6.32;2.00;;;;;;;;;;5075712;28;20470;-70
2023/10/17 08:29:49;;;;;;;3.72;1.98;;;;;;;;;;5058484;28;20020;-70
2023/10/17 08:34:48;;;;;;;3.78;1.83;;;;;;;;;;5075708;28;20459;-70
2023/10/17 08:37:27;;;;;;;3.63;1.70;;;;;;;;;;5075441;28;20051;-70
2023/10/17 08:39:52;;;;;;;5.38;1.70;;;;;;;;;;5059431;28;20024;-70
2023/10/17 08:44:56;;;;;;;2.58;1.75;;;;;;;;;;5075625;28;20024;-70
2023/10/17 08:47:25;;;;;;;5.43;1.95;;;;;;;;;;5075088;28;20024;-71
2023/10/17 08:49:54;;;;;;;5.60;2.40;;;;;;;;;;5075173;28;20453;-71
2023/10/17 08:52:26;;;;;;;4.75;1.80;;;;;;;;;;5057608;28;20028;-70
2023/10/17 08:54:51;;;;;;;2.55;1.52;;;;;;;;;;5072432;23;20041;-67
2023/10/17 08:57:17;;;;;;;3.97;2.05;;;;;;;;;;5054633;28;20112;-67
2023/10/17 09:04:50;;;;;;;6.88;2.25;;;;;;;;;;5053676;28;20021;-67
2023/10/17 09:07:31;;;;;;;6.05;1.50;;;;;;;;;;5054712;28;20032;-67
2023/10/17 09:10:02;;;;;;;6.22;2.05;;;;;;;;;;5054697;28;20029;-67
2023/10/17 09:12:28;;;;;;;10.65;1.63;;;;;;;;;;5053508;28;20025;-67
2023/10/17 09:14:56;;;;;;;8.55;1.90;;;;;;;;;;5054419;28;20044;-67
2023/10/17 09:19:53;;;;;;;4.63;1.73;;;;;;;;;;5052981;28;20111;-67
2023/10/17 09:22:21;;;;;;;3.10;1.42;;;;;;;;;;5052929;28;20031;-67
2023/10/17 09:24:49;;;;;;;5.28;1.33;;;;;;;;;;5054217;28;20386;-67
2023/10/17 09:27:16;;;;;;;7.28;2.05;;;;;;;;;;5053379;28;20520;-67
2023/10/17 09:29:49;;;;;;;4.78;2.05;;;;;;;;;;5053001;28;20057;-67
2023/10/17 09:32:42;;;;;;;4.32;2.10;;;;;;;;;;5054253;28;20029;-67
2023/10/17 09:35:16;;;;;;;3.28;2.15;;;;;;;;;;5053904;28;20025;-67
2023/10/17 09:37:46;;;;;;;6.13;1.92;;;;;;;;;;5053888;28;20055;-67
2023/10/17 09:40:14;;;;;;;4.35;1.67;;;;;;;;;;5053813;28;20021;-67
2023/10/17 09:42:40;;;;;;;4.15;1.92;;;;;;;;;;5052796;28;20086;-67
2023/10/17 09:45:08;;;;;;;3.17;1.75;;;;;;;;;;5053924;28;20071;-67
2023/10/17 09:47:35;;;;;;;5.82;1.92;;;;;;;;;;5052405;28;20036;-67
2023/10/17 09:50:03;;;;;;;8.20;1.85;;;;;;;;;;5052705;28;20029;-67
2023/10/17 09:52:30;;;;;;;2.47;1.83;;;;;;;;;;5053555;28;20025;-67
2023/10/17 09:54:58;;;;;;;3.50;1.92;;;;;;;;;;5053315;28;20106;-67
2023/10/17 09:57:25;;;;;;;2.35;2.15;;;;;;;;;;5053473;28;20021;-67
2023/10/17 10:00:15;;;;;;;2.97;1.70;;;;;;;;;;5051563;28;20372;-67
2023/10/17 10:02:41;;;;;;;4.78;1.70;;;;;;;;;;5052240;28;20110;-67
2023/10/17 10:05:24;;;;;;;6.13;2.05;;;;;;;;;;5052043;28;20517;-67
2023/10/17 10:07:50;;;;;;;1.25;1.15;;;;;;;;;;5053620;28;20537;-67
2023/10/17 10:10:49;;;;;;;3.22;1.55;;;;;;;;;;5052214;28;20029;-68
2023/10/17 10:13:14;;;;;;;1.65;1.50;;;;;;;;;;5052641;28;20485;-67
2023/10/17 10:15:59;;;;;;;4.00;1.63;;;;;;;;;;5051834;28;20052;-67
2023/10/17 10:18:42;;;;;;;1.70;1.33;;;;;;;;;;5053091;28;20089;-67
2023/10/17 10:21:08;;;;;;;1.92;1.38;;;;;;;;;;5053028;28;20032;-67
2023/10/17 10:23:35;;;;;;;3.60;1.63;;;;;;;;;;5053031;28;20025;-67
2023/10/17 10:26:19;;;;;;;3.35;1.35;;;;;;;;;;5051980;28;20017;-67
2023/10/17 10:28:45;;;;;;;3.30;1.65;;;;;;;;;;5052977;28;20021;-67
2023/10/17 10:31:27;;;;;;;3.15;1.50;;;;;;;;;;5051957;28;20067;-67
2023/10/17 10:33:53;;;;;;;2.08;1.15;;;;;;;;;;5053092;28;20443;-67
2023/10/17 10:36:19;;;;;;;2.13;1.92;;;;;;;;;;5052960;28;20029;-67
2023/10/17 10:38:45;;;;;;;5.28;1.88;;;;;;;;;;5051630;28;20162;-67
2023/10/17 10:41:13;;;;;;;6.35;1.60;;;;;;;;;;5052969;28;20056;-67
2023/10/17 10:43:41;;;;;;;4.20;1.45;;;;;;;;;;5053015;28;20025;-67
2023/10/17 10:46:08;;;;;;;2.58;1.23;;;;;;;;;;5052564;28;20039;-67
2023/10/17 10:48:33;;;;;;;2.85;1.35;;;;;;;;;;5052895;28;20031;-67
2023/10/17 10:51:00;;;;;;;1.35;1.20;;;;;;;;;;5052661;28;20031;-67
2023/10/17 10:53:33;;;;;;;2.40;1.60;;;;;;;;;;5052528;28;20023;-67
2023/10/17 10:56:01;;;;;;;4.85;1.30;;;;;;;;;;5051153;28;20056;-67
2023/10/17 10:58:28;;;;;;;2.72;1.48;;;;;;;;;;5052589;28;20024;-67
2023/10/17 11:00:58;;;;;;;2.75;1.35;;;;;;;;;;5052810;28;20031;-67
2023/10/17 11:03:24;;;;;;;1.95;1.50;;;;;;;;;;5052781;28;20032;-67
2023/10/17 11:06:03;;;;;;;5.65;1.45;;;;;;;;;;5052440;28;20128;-67
2023/10/17 11:08:36;;;;;;;2.45;2.25;;;;;;;;;;5052418;28;20032;-67
2023/10/17 11:11:03;;;;;;;1.30;1.20;;;;;;;;;;5051660;28;20124;-67
2023/10/17 11:13:37;;;;;;;3.90;1.73;;;;;;;;;;5056813;28;20033;-67
2023/10/17 11:16:06;;;;;;;10.30;4.53;;;;;;;;;;5056391;28;20025;-67
2023/10/17 11:18:39;;;;;;;9.25;4.28;;;;;;;;;;5055345;28;20064;-67
2023/10/17 11:21:05;;;;;;;11.25;4.55;;;;;;;;;;5055329;28;20067;-67
2023/10/17 11:23:32;;;;;;;28.77;11.50;;;;;;;;;;5056835;28;20048;-67
2023/10/17 11:25:59;;;;;;;2.83;1.70;;;;;;;;;;5056441;28;20491;-67
2023/10/17 11:28:27;;;;;;;1.33;0.90;;;;;;;;;;5056509;28;20394;-67
2023/10/17 11:30:52;;;;;;;1.63;1.42;;;;;;;;;;5055124;28;20483;-67
2023/10/17 11:33:18;;;;;;;2.67;1.42;;;;;;;;;;5054996;28;20025;-67
2023/10/17 11:35:51;;;;;;;1.67;1.27;;;;;;;;;;5055564;28;20013;-67
2023/10/17 11:38:37;;;;;;;1.58;1.35;;;;;;;;;;5056137;28;20487;-67
2023/10/17 11:41:04;;;;;;;1.95;1.40;;;;;;;;;;5056101;28;20074;-67
2023/10/17 11:43:34;;;;;;;2.80;1.52;;;;;;;;;;5056309;28;20414;-67
2023/10/17 11:46:00;;;;;;;3.17;1.40;;;;;;;;;;5056328;28;20020;-67
2023/10/17 11:48:31;;;;;;;1.65;1.20;;;;;;;;;;5055009;28;20028;-67
2023/10/17 11:51:03;;;;;;;;;;;;;;;;;;5056363;28;20028;-67
2023/10/17 11:53:30;;;;;;;2.08;1.25;;;;;;;;;;5055998;28;19915;-67
2023/10/17 11:55:55;;;;;;;2.70;1.40;;;;;;;;;;5054364;28;20029;-67
2023/10/17 11:58:25;;;;;;;1.25;0.80;;;;;;;;;;5055719;28;20398;-67
2023/10/17 12:00:50;;;;;;;1.90;1.30;;;;;;;;;;5055682;28;20491;-67
2023/10/17 12:03:19;;;;;;;2.58;1.23;;;;;;;;;;5055960;28;20044;-67
2023/10/17 12:05:44;;;;;;;1.85;1.08;;;;;;;;;;5055561;28;20490;-67
2023/10/17 12:08:09;;;;;;;2.90;1.48;;;;;;;;;;5055569;28;20025;-67
2023/10/17 12:10:36;;;;;;;1.70;1.60;;;;;;;;;;5056254;28;20083;-67
2023/10/17 12:13:06;;;;;;;1.30;1.20;;;;;;;;;;5055752;28;20036;-67
2023/10/17 12:15:31;;;;;;;3.20;1.30;;;;;;;;;;5055463;28;20021;-68
2023/10/17 12:17:57;;;;;;;3.25;1.27;;;;;;;;;;5055347;28;20574;-68
2023/10/17 12:20:28;;;;;;;2.67;1.33;;;;;;;;;;5055358;28;20028;-68
2023/10/17 12:22:57;;;;;;;5.93;1.42;;;;;;;;;;5055349;28;20057;-68
2023/10/17 12:25:25;;;;;;;1.73;1.63;;;;;;;;;;5055227;28;20061;-67
2023/10/17 12:27:52;;;;;;;1.33;1.10;;;;;;;;;;5055226;28;20451;-67
2023/10/17 12:30:27;;;;;;;1.50;1.40;;;;;;;;;;5055438;28;20032;-67
2023/10/17 12:32:52;;;;;;;1.83;1.05;;;;;;;;;;5055541;28;20120;-67
2023/10/17 12:35:21;;;;;;;2.10;0.95;;;;;;;;;;5055458;28;20445;-68
2023/10/17 12:37:46;;;;;;;4.25;1.38;;;;;;;;;;5055313;28;20032;-68
2023/10/17 12:40:18;;;;;;;1.30;1.20;;;;;;;;;;5055228;28;20419;-68
2023/10/17 12:42:45;;;;;;;1.27;1.17;;;;;;;;;;5053875;28;20027;-68
2023/10/17 12:45:11;;;;;;;2.42;1.33;;;;;;;;;;5055237;28;20466;-68
2023/10/17 12:47:38;;;;;;;3.42;1.42;;;;;;;;;;5053936;28;20037;-68
2023/10/17 12:50:04;;;;;;;1.30;1.02;;;;;;;;;;5055086;28;20100;-68
2023/10/17 12:52:30;;;;;;;2.05;1.35;;;;;;;;;;5055597;28;20025;-68
2023/10/17 12:54:55;;;;;;;1.30;1.20;;;;;;;;;;5055306;28;20025;-68
2023/10/17 12:57:20;;;;;;;3.05;1.35;;;;;;;;;;5055077;28;20033;-68
2023/10/17 12:59:46;;;;;;;84.03;33.58;;;;;;;;;;5054691;28;20111;-68
2023/10/17 13:02:12;;;;;;;116.35;29.48;;;;;;;;;;5054600;28;20079;-68
2023/10/17 13:04:37;;;;;;;55.70;13.60;;;;;;;;;;5054694;28;20486;-68
2023/10/17 13:07:02;;;;;;;71.53;13.95;;;;;;;;;;5054801;28;20112;-68
2023/10/17 13:09:31;;;;;;;148.07;30.67;;;;;;;;;;5054409;28;20564;-68
2023/10/17 13:11:57;;;;;;;114.15;22.60;;;;;;;;;;5054670;28;20032;-68
2023/10/17 13:14:22;;;;;;;277.00;46.40;;;;;;;;;;5054190;28;20028;-67
2023/10/17 13:16:48;;;;;;;119.40;22.38;;;;;;;;;;5054198;28;20025;-68
2023/10/17 13:19:16;;;;;;;28.40;8.13;;;;;;;;;;5054249;28;20029;-68
2023/10/17 13:21:43;;;;;;;3.47;1.80;;;;;;;;;;5054137;28;20032;-68
2023/10/17 13:24:09;;;;;;;3.72;1.67;;;;;;;;;;5054053;28;20025;-68
2023/10/17 13:26:37;;;;;;;5.35;2.05;;;;;;;;;;5054361;28;20047;-68
2023/10/17 13:29:04;;;;;;;9.90;2.58;;;;;;;;;;5054340;28;20064;-68
2023/10/17 13:31:29;;;;;;;12.05;3.50;;;;;;;;;;5054290;28;20447;-68
2023/10/17 13:33:55;;;;;;;3.53;1.60;;;;;;;;;;5052963;28;20043;-68
2023/10/17 13:36:21;;;;;;;5.95;2.72;;;;;;;;;;5053767;28;20386;-68
2023/10/17 13:38:48;;;;;;;8.25;2.45;;;;;;;;;;5054113;28;20043;-68
2023/10/17 13:41:17;;;;;;;5.50;1.58;;;;;;;;;;5053776;28;20490;-67
2023/10/17 13:43:43;;;;;;;1.45;1.23;;;;;;;;;;5054051;28;20029;-67
2023/10/17 13:46:12;;;;;;;3.25;1.30;;;;;;;;;;5053981;28;20017;-67
2023/10/17 13:48:38;;;;;;;3.25;1.30;;;;;;;;;;5053695;28;20450;-67
2023/10/17 13:51:06;;;;;;;2.60;1.60;;;;;;;;;;5053628;28;20091;-68
2023/10/17 13:53:36;;;;;;;1.73;1.50;;;;;;;;;;5053622;28;20025;-68
2023/10/17 13:56:07;;;;;;;2.95;1.75;;;;;;;;;;5053447;28;20051;-68
2023/10/17 13:58:36;;;;;;;;;;;;;;;;;;5052813;28;20033;-68
2023/10/17 14:01:03;;;;;;;3.88;2.17;;;;;;;;;;5053478;28;19909;-68
2023/10/17 14:03:28;;;;;;;2.97;1.60;;;;;;;;;;5053846;28;20099;-68
2023/10/17 14:05:54;;;;;;;2.80;1.88;;;;;;;;;;5053289;28;20159;-68
2023/10/17 14:08:22;;;;;;;2.13;1.60;;;;;;;;;;5052191;28;20071;-68
2023/10/17 14:10:48;;;;;;;3.20;1.65;;;;;;;;;;5053663;28;20029;-68
2023/10/17 14:13:16;;;;;;;1.60;1.42;;;;;;;;;;5053501;28;20025;-68
2023/10/17 14:15:41;;;;;;;2.33;1.77;;;;;;;;;;5053023;28;20017;-68
2023/10/17 14:18:13;;;;;;;2.78;1.60;;;;;;;;;;5053595;28;20045;-68
2023/10/17 14:20:39;;;;;;;4.85;1.50;;;;;;;;;;5053717;28;20024;-68
2023/10/17 14:23:08;;;;;;;4.45;1.48;;;;;;;;;;5053431;28;20025;-68
2023/10/17 14:28:18;;;;;;;3.25;2.25;;;;;;;;;;5053307;28;20533;-68
2023/10/17 14:30:43;;;;;;;2.42;1.67;;;;;;;;;;5053155;28;20111;-68
2023/10/17 14:33:09;;;;;;;3.78;1.70;;;;;;;;;;5053166;28;20024;-68
2023/10/17 14:35:37;;;;;;;3.45;1.85;;;;;;;;;;5052685;28;20541;-68
2023/10/17 14:38:03;;;;;;;1.92;1.58;;;;;;;;;;5052836;28;20037;-68
2023/10/17 14:40:31;;;;;;;5.00;1.80;;;;;;;;;;5053063;28;20108;-68
2023/10/17 14:42:58;;;;;;;2.25;1.40;;;;;;;;;;5053041;28;20107;-68
2023/10/17 14:45:24;;;;;;;4.25;2.30;;;;;;;;;;5052740;28;20025;-68
2023/10/17 14:47:51;;;;;;;2.30;1.55;;;;;;;;;;5052978;28;20020;-68
2023/10/17 14:50:17;;;;;;;2.00;1.50;;;;;;;;;;5052644;28;20029;-68
2023/10/17 14:52:42;;;;;;;1.27;1.13;;;;;;;;;;5052941;28;20025;-68
2023/10/17 14:55:14;;;;;;;4.25;1.52;;;;;;;;;;5071249;22;20040;-71
2023/10/17 14:57:41;;;;;;;1.58;1.20;;;;;;;;;;5073161;28;20039;-71
2023/10/17 15:00:13;;;;;;;2.15;1.02;;;;;;;;;;5072933;28;20551;-70
2023/10/17 15:02:44;;;;;;;1.13;1.02;;;;;;;;;;5071707;28;20024;-70
2023/10/17 15:05:13;;;;;;;1.88;1.20;;;;;;;;;;5072886;28;20017;-70
2023/10/17 15:07:39;;;;;;;1.65;0.93;;;;;;;;;;5073185;28;20095;-70
2023/10/17 15:10:11;;;;;;;2.85;1.40;;;;;;;;;;5055289;28;20490;-70
2023/10/17 15:12:41;;;;;;;1.75;1.08;;;;;;;;;;5072874;28;20035;-70
2023/10/17 15:15:10;;;;;;;5.50;1.48;;;;;;;;;;5054861;28;20474;-70
2023/10/17 15:17:39;;;;;;;0.98;0.95;;;;;;;;;;5055157;28;20032;-70
2023/10/17 15:20:05;;;;;;;2.65;0.95;;;;;;;;;;5055132;28;20025;-70
2023/10/17 15:22:31;;;;;;;3.47;1.35;;;;;;;;;;5072680;28;20028;-70
2023/10/17 15:24:58;;;;;;;1.50;1.20;;;;;;;;;;5072900;28;20151;-70
2023/10/17 15:27:23;;;;;;;4.10;1.80;;;;;;;;;;5055184;28;20031;-70
2023/10/17 15:29:50;;;;;;;3.38;1.40;;;;;;;;;;5054813;28;20024;-70
2023/10/17 15:32:15;;;;;;;3.85;1.30;;;;;;;;;;5072928;28;20026;-70
2023/10/17 15:34:40;;;;;;;1.30;1.20;;;;;;;;;;5071274;28;20112;-70
2023/10/17 15:37:06;;;;;;;3.17;1.45;;;;;;;;;;5038874;28;20028;-70
2023/10/17 15:39:31;;;;;;;2.70;1.40;;;;;;;;;;5054666;28;20112;-70
2023/10/17 15:41:57;;;;;;;1.50;1.38;;;;;;;;;;5054652;28;20025;-70
2023/10/17 15:44:22;;;;;;;2.08;1.80;;;;;;;;;;5054650;28;20025;-70
2023/10/17 15:46:48;;;;;;;2.67;1.50;;;;;;;;;;5072406;28;20028;-71
2023/10/17 15:49:14;;;;;;;4.55;1.35;;;;;;;;;;5054656;28;20025;-70
2023/10/17 15:51:39;;;;;;;1.70;1.40;;;;;;;;;;5054565;28;20050;-70
2023/10/17 15:54:05;;;;;;;1.50;1.40;;;;;;;;;;5072392;28;20502;-70
2023/10/17 15:56:30;;;;;;;4.13;1.67;;;;;;;;;;5072223;28;20029;-71
2023/10/17 15:58:56;;;;;;;1.80;1.20;;;;;;;;;;5057753;28;20017;-71
2023/10/17 16:01:21;;;;;;;0.80;0.80;;;;;;;;;;5076060;28;20396;-70
2023/10/17 16:03:47;;;;;;;2.75;1.80;;;;;;;;;;5058191;28;20016;-70
2023/10/17 16:06:14;;;;;;;2.92;1.58;;;;;;;;;;5057977;28;20027;-70
2023/10/17 16:08:40;;;;;;;1.52;1.42;;;;;;;;;;5058348;28;20032;-70
2023/10/17 16:11:06;;;;;;;3.20;2.08;;;;;;;;;;5058108;28;20024;-70
2023/10/17 16:13:32;;;;;;;4.38;1.48;;;;;;;;;;5058195;28;20031;-70
2023/10/17 16:15:58;;;;;;;1.70;1.60;;;;;;;;;;5075603;28;20025;-70
2023/10/17 16:18:23;;;;;;;2.55;1.60;;;;;;;;;;5058137;28;20060;-70
2023/10/17 16:20:49;;;;;;;1.67;1.50;;;;;;;;;;5075773;28;20082;-70
2023/10/17 16:23:17;;;;;;;1.85;1.42;;;;;;;;;;5058160;28;20025;-70
2023/10/17 16:25:47;;;;;;;1.50;1.40;;;;;;;;;;5058172;28;20092;-70
2023/10/17 16:28:13;;;;;;;1.75;1.60;;;;;;;;;;5058481;28;20030;-70
2023/10/17 16:30:40;;;;;;;1.83;1.52;;;;;;;;;;5057744;28;20028;-71
2023/10/17 16:33:05;;;;;;;1.15;0.90;;;;;;;;;;5057725;28;20402;-70
2023/10/17 16:35:32;;;;;;;2.38;1.52;;;;;;;;;;5057806;28;20074;-70
2023/10/17 16:37:58;;;;;;;2.28;1.42;;;;;;;;;;5057533;28;20132;-71
2023/10/17 16:40:25;;;;;;;2.00;1.65;;;;;;;;;;5057576;28;20513;-71
2023/10/17 16:42:50;;;;;;;2.80;1.77;;;;;;;;;;5075617;28;20099;-70
2023/10/17 16:45:15;;;;;;;2.03;1.52;;;;;;;;;;5040770;28;20103;-71
2023/10/17 16:47:44;;;;;;;3.75;1.95;;;;;;;;;;5057385;28;20020;-71
2023/10/17 16:50:12;;;;;;;2.35;1.73;;;;;;;;;;5057741;28;20024;-71
2023/10/17 16:52:37;;;;;;;5.43;2.22;;;;;;;;;;5057502;28;20020;-71
2023/10/17 16:55:03;;;;;;;2.10;1.90;;;;;;;;;;5074881;28;20375;-70
2023/10/17 16:57:28;;;;;;;2.90;2.00;;;;;;;;;;5057330;28;20020;-71
2023/10/17 16:59:54;;;;;;;3.25;1.92;;;;;;;;;;5057495;28;20082;-71
2023/10/17 17:02:21;;;;;;;2.13;1.70;;;;;;;;;;5057176;28;20032;-71
2023/10/17 17:04:47;;;;;;;4.10;1.77;;;;;;;;;;5040832;28;20398;-71
2023/10/17 17:07:12;;;;;;;2.95;2.00;;;;;;;;;;5074960;28;20024;-71